Bookmark and Share
Track history (hours):
 

MTS Valour

Last reported at 2014-Apr-18 23:24 UTC. Time now 2014-Apr-19 19:45 UTC.
Position N 53°27' W 003°02'.

Length 24 m; draft 2.3 m.

Type: Tug. MMSI: 235040596.

NotesDate/timePositionNaut miles runAvg speedWind from/ knotsBaromVisibWave heightAir tempDewpointWater temp
2014-Apr-18 23:24N 53°27' W 003°02'0 0.0
2014-Apr-18 21:21N 53°27' W 003°02'0 0.0
2014-Apr-18 20:21N 53°27' W 003°02'0 0.0
2014-Apr-18 19:30N 53°27' W 003°02'1 0.1
2014-Apr-18 11:30N 53°27' W 003°01'1 0.8
2014-Apr-18 10:17N 53°27' W 003°02'0 0.0
2014-Apr-18 06:20N 53°27' W 003°02'0 0.0
2014-Apr-18 05:31N 53°27' W 003°02'0 0.0
2014-Apr-18 03:33N 53°27' W 003°02'0 0.0
2014-Apr-18 00:20N 53°27' W 003°02'0 0.0
2014-Apr-17 10:26N 53°27' W 003°02'0 0.0
2014-Apr-17 07:32N 53°27' W 003°02'0 0.0
2014-Apr-17 06:32N 53°27' W 003°02'0 0.0
2014-Apr-17 05:32N 53°27' W 003°02'0 0.0
2014-Apr-17 04:32N 53°27' W 003°02'0 0.0
2014-Apr-17 03:32N 53°27' W 003°02'0 0.0
2014-Apr-17 02:32N 53°27' W 003°02'0 0.0
2014-Apr-17 01:26N 53°27' W 003°02'0 0.0
2014-Apr-17 00:32N 53°27' W 003°02'0 0.0
2014-Apr-16 23:32N 53°27' W 003°02'0 0.0
2014-Apr-16 22:32N 53°27' W 003°02'0 0.0
2014-Apr-16 21:32N 53°27' W 003°02'0 0.0
2014-Apr-16 20:32N 53°27' W 003°02'0 0.0
2014-Apr-16 19:32N 53°27' W 003°02'0 0.0
2014-Apr-16 17:32N 53°27' W 003°02'0 0.0
2014-Apr-16 16:32N 53°27' W 003°02'0 0.0
2014-Apr-16 15:26N 53°27' W 003°02'0 0.0
2014-Apr-16 14:26N 53°27' W 003°02'0 0.0
2014-Apr-16 13:26N 53°27' W 003°02'0 0.0
2014-Apr-16 12:32N 53°27' W 003°02'0 0.0
2014-Apr-16 11:26N 53°27' W 003°02'0 0.0
2014-Apr-16 10:32N 53°27' W 003°02'0 0.0
2014-Apr-16 08:32N 53°27' W 003°02'0 0.1
2014-Apr-16 07:32N 53°27' W 003°02'0 0.1
2014-Apr-16 06:32N 53°27' W 003°02'0 0.0
2014-Apr-16 05:26N 53°27' W 003°02'0 0.0
2014-Apr-16 04:26N 53°27' W 003°02'0 0.0
2014-Apr-16 03:32N 53°27' W 003°02'0 0.0
2014-Apr-16 02:26N 53°27' W 003°02'0 0.0
2014-Apr-16 01:26N 53°27' W 003°02'0 0.0
2014-Apr-16 00:32N 53°27' W 003°02'0 0.0
2014-Apr-15 23:32N 53°27' W 003°02'0 0.0
2014-Apr-15 22:14N 53°27' W 003°02'0 0.0
2014-Apr-15 21:26N 53°27' W 003°02'0 0.0
2014-Apr-15 20:32N 53°27' W 003°02'0 0.0
2014-Apr-15 19:32N 53°27' W 003°02'0 0.0
2014-Apr-15 18:20N 53°27' W 003°02'0 0.0
2014-Apr-15 17:32N 53°27' W 003°02'0 0.0
2014-Apr-15 16:32N 53°27' W 003°02'0 0.0
2014-Apr-15 15:26N 53°27' W 003°02'0 0.0
2014-Apr-15 14:32N 53°27' W 003°02'0 0.0
2014-Apr-15 12:34N 53°27' W 003°02'1 0.5
2014-Apr-15 11:34N 53°27' W 003°01'0 0.3
2014-Apr-15 10:34N 53°27' W 003°02'0 0.0
2014-Apr-15 09:34N 53°27' W 003°02'0 0.3
2014-Apr-15 08:33N 53°27' W 003°01'0 0.2
2014-Apr-15 07:34N 53°27' W 003°01'1 0.9
2014-Apr-15 06:34N 53°26' W 003°01'1 1.2
2014-Apr-15 05:34N 53°27' W 003°02'0 0.0
2014-Apr-15 03:34N 53°27' W 003°02'0 0.0
2014-Apr-15 02:34N 53°27' W 003°02'0 0.0
2014-Apr-15 01:34N 53°27' W 003°02'0 0.0
2014-Apr-15 00:33N 53°27' W 003°02'0 0.0
2014-Apr-14 23:34N 53°27' W 003°02'0 0.0
2014-Apr-14 22:34N 53°27' W 003°02'0 0.2
2014-Apr-14 21:34N 53°28' W 003°02'0 0.2
2014-Apr-14 20:34N 53°27' W 003°02'0 0.0
2014-Apr-14 19:34N 53°27' W 003°02'0 0.1
2014-Apr-14 18:34N 53°27' W 003°02'1 1.3
2014-Apr-14 17:34N 53°26' W 003°01'1 1.0
2014-Apr-14 16:34N 53°27' W 003°02'2 2.4
2014-Apr-14 15:34N 53°29' W 003°05'6 5.7
2014-Apr-14 14:34N 53°31' W 003°13'6 0.2
2014-Apr-13 12:23N 53°33' W 003°23'7 9.0
2014-Apr-13 11:33N 53°32' W 003°10'7 7.3
2014-Apr-13 10:33N 53°27' W 003°01'1 0.5
2014-Apr-13 09:33N 53°27' W 003°02'0 0.0
2014-Apr-13 08:33N 53°27' W 003°02'0 0.0
2014-Apr-13 07:33N 53°27' W 003°02'0 0.0
2014-Apr-13 06:33N 53°27' W 003°02'0 0.0
2014-Apr-13 05:32N 53°27' W 003°02'0 0.0
2014-Apr-13 04:31N 53°27' W 003°02'0 0.0
2014-Apr-13 03:33N 53°27' W 003°02'0 0.0
2014-Apr-13 02:33N 53°27' W 003°02'0 0.0
2014-Apr-13 01:33N 53°27' W 003°02'0 0.0
2014-Apr-13 00:33N 53°27' W 003°02'0 0.0
2014-Apr-12 23:33N 53°27' W 003°02'0 0.0
2014-Apr-12 22:33N 53°27' W 003°02'0 0.0
2014-Apr-12 21:33N 53°27' W 003°02'0 0.0
2014-Apr-12 20:33N 53°27' W 003°02'0 0.0
2014-Apr-12 19:33N 53°27' W 003°02'0 0.0
2014-Apr-12 18:33N 53°27' W 003°02'0 0.0
2014-Apr-12 17:32N 53°27' W 003°02'0 0.0
2014-Apr-12 16:33N 53°27' W 003°02'0 0.0
2014-Apr-12 15:33N 53°27' W 003°02'0 0.0
2014-Apr-12 14:33N 53°27' W 003°02'0 0.0
2014-Apr-12 13:33N 53°27' W 003°02'0 0.0
2014-Apr-12 12:33N 53°27' W 003°02'0 0.0
2014-Apr-12 11:33N 53°27' W 003°02'0 0.0
2014-Apr-12 10:33N 53°27' W 003°02'0 0.0
2014-Apr-12 09:33N 53°27' W 003°02'0 0.0
2014-Apr-12 08:33N 53°27' W 003°02'0 0.0
2014-Apr-12 07:33N 53°27' W 003°02'0 0.0
2014-Apr-12 06:33N 53°27' W 003°02'0 0.0
2014-Apr-12 05:33N 53°27' W 003°02'0 0.0
2014-Apr-12 04:33N 53°27' W 003°02'0 0.0
2014-Apr-12 03:33N 53°27' W 003°02'0 0.0
2014-Apr-12 02:33N 53°27' W 003°02'0 0.0
2014-Apr-12 01:33N 53°27' W 003°02'0 0.0
2014-Apr-12 00:33N 53°27' W 003°02'0 0.0
2014-Apr-11 23:33N 53°27' W 003°02'0 0.0
2014-Apr-11 22:33N 53°27' W 003°02'0 0.0
2014-Apr-11 21:33N 53°27' W 003°02'0 0.0
2014-Apr-11 20:33N 53°27' W 003°02'0 0.0
2014-Apr-11 19:33N 53°27' W 003°02'0 0.0
2014-Apr-11 18:33N 53°27' W 003°02'2 1.6
2014-Apr-11 17:34N 53°26' W 003°00'0 0.2
2014-Apr-11 16:33N 53°26' W 003°00'0 0.0
2014-Apr-11 15:33N 53°26' W 003°00'0 0.0
2014-Apr-11 14:33N 53°26' W 003°00'0 0.0
2014-Apr-11 13:33N 53°26' W 003°00'2 1.7
2014-Apr-11 12:33N 53°27' W 003°02'0 0.0
2014-Apr-11 11:33N 53°27' W 003°02'0 0.0
2014-Apr-11 10:33N 53°27' W 003°02'0 0.0
2014-Apr-11 09:33N 53°27' W 003°02'0 0.0
2014-Apr-11 08:33N 53°27' W 003°02'0 0.0
2014-Apr-11 07:33N 53°27' W 003°02'0 0.0
2014-Apr-11 06:33N 53°27' W 003°02'0 0.0
2014-Apr-11 05:33N 53°27' W 003°02'0 0.0
2014-Apr-11 04:33N 53°27' W 003°02'0 0.0
2014-Apr-11 03:33N 53°27' W 003°02'0 0.0
2014-Apr-11 02:33N 53°27' W 003°02'0 0.0
2014-Apr-11 01:33N 53°27' W 003°02'0 0.0
2014-Apr-11 00:33N 53°27' W 003°02'0 0.0
2014-Apr-10 23:33N 53°27' W 003°02'0 0.0
2014-Apr-10 22:33N 53°27' W 003°02'0 0.0
2014-Apr-10 21:33N 53°27' W 003°02'0 0.0
2014-Apr-10 20:33N 53°27' W 003°02'0 0.0
2014-Apr-10 19:33N 53°27' W 003°02'0 0.0
2014-Apr-10 18:33N 53°27' W 003°02'0 0.0
2014-Apr-10 17:33N 53°27' W 003°02'0 0.0
2014-Apr-10 16:33N 53°27' W 003°02'0 0.0
2014-Apr-10 15:33N 53°27' W 003°02'0 0.0
2014-Apr-10 14:33N 53°27' W 003°02'0 0.0
2014-Apr-10 13:33N 53°27' W 003°02'0 0.0
2014-Apr-10 12:33N 53°27' W 003°02'0 0.1
2014-Apr-10 11:33N 53°27' W 003°02'0 0.4
2014-Apr-10 10:33N 53°27' W 003°01'0 0.2
2014-Apr-10 09:34N 53°27' W 003°02'0 0.1
2014-Apr-10 08:33N 53°27' W 003°02'0 0.1
2014-Apr-10 07:33N 53°27' W 003°01'0 0.2
2014-Apr-10 06:33N 53°27' W 003°01'0 0.1
2014-Apr-10 05:33N 53°27' W 003°01'1 0.5
2014-Apr-10 04:33N 53°27' W 003°02'0 0.0
2014-Apr-10 03:33N 53°27' W 003°02'0 0.0
2014-Apr-10 02:33N 53°27' W 003°02'0 0.0
2014-Apr-10 01:33N 53°27' W 003°02'0 0.0
2014-Apr-10 00:33N 53°27' W 003°02'0 0.0
2014-Apr-09 23:33N 53°27' W 003°02'0 0.0
2014-Apr-09 22:33N 53°27' W 003°02'0 0.0
2014-Apr-09 21:33N 53°27' W 003°02'0 0.0
2014-Apr-09 20:33N 53°27' W 003°02'0 0.0
2014-Apr-09 19:33N 53°27' W 003°02'0 0.0
2014-Apr-09 18:33N 53°27' W 003°02'0 0.0
2014-Apr-09 17:33N 53°27' W 003°02'0 0.0
2014-Apr-09 16:33N 53°27' W 003°02'0 0.0
2014-Apr-09 15:33N 53°27' W 003°02'0 0.0
2014-Apr-09 14:33N 53°27' W 003°02'0 0.0
2014-Apr-09 13:33N 53°27' W 003°02'0 0.0
2014-Apr-09 12:33N 53°27' W 003°02'0 0.0
2014-Apr-09 11:33N 53°27' W 003°02'0 0.0
2014-Apr-09 10:33N 53°27' W 003°02'0 0.0
2014-Apr-09 09:33N 53°27' W 003°02'0 0.0
2014-Apr-09 08:33N 53°27' W 003°02'0 0.0
2014-Apr-09 07:31N 53°27' W 003°02'0 0.0
2014-Apr-09 06:30N 53°27' W 003°02'0 0.0
2014-Apr-09 05:31N 53°27' W 003°02'0 0.0
2014-Apr-09 04:16N 53°27' W 003°02'0 0.0
2014-Apr-09 03:33N 53°27' W 003°02'0 0.0
2014-Apr-09 02:33N 53°27' W 003°02'0 0.0
2014-Apr-09 01:33N 53°27' W 003°02'0 0.0
2014-Apr-09 00:33N 53°27' W 003°02'0 0.0
2014-Apr-08 23:33N 53°27' W 003°02'  

Dump ship's entire track history

sailing weather and tide predictions

MTS Valour — MPVV8 — position and weather